Oakwood Shores, Indiana
Current Conditions -  °F | °C
As of 8:55 AM on Sunday 21 Dec 2014 (Local Time) from KANQ Reporting Station
Overcast Overcast  
Wind Chill: 28°   Ceiling: 5500
Heat Index: 28°   Visibility: 5mi
Dew Point: 27°   Wind: 3mph
Humidity: 93%   Direction: 170°S
Pressure: 30.26"   Gusts: NA
Location:  41.5557°N, 84.8806°W
Report Text: KANQ 211355Z AUTO 17003KT 5SM OVC055 M02/M03 A3026 RMK
Loading
Personal Weather Stations






























Interactive Weather Map New forecast layout! Learn more

10-Day Weather Forecast

Advertisements
Track Severe Weather on mobile